createdAt,value
2023-03-13T00:02:01.347Z,11.90
2023-03-13T00:04:28.082Z,11.90
2023-03-13T00:06:54.865Z,11.90
2023-03-13T00:09:23.408Z,11.90
2023-03-13T00:11:50.225Z,11.90
2023-03-13T00:14:17.053Z,11.90
2023-03-13T00:16:43.946Z,11.80
2023-03-13T00:19:11.150Z,11.70
2023-03-13T00:21:38.165Z,11.60
2023-03-13T00:24:05.238Z,11.50
2023-03-13T00:26:32.082Z,11.40
2023-03-13T00:28:59.004Z,11.40
2023-03-13T00:31:31.398Z,11.40
2023-03-13T00:34:02.887Z,11.40
2023-03-13T00:36:32.213Z,11.30
2023-03-13T00:38:59.579Z,11.30
2023-03-13T00:41:31.160Z,11.30
2023-03-13T00:43:58.001Z,11.30
2023-03-13T00:46:27.399Z,11.40
2023-03-13T00:48:54.385Z,11.30
2023-03-13T00:51:23.865Z,11.40
2023-03-13T00:53:50.752Z,11.40
2023-03-13T00:56:18.856Z,11.40
2023-03-13T00:58:46.995Z,11.40
2023-03-13T01:01:16.443Z,11.30
2023-03-13T01:03:45.241Z,11.30
2023-03-13T01:06:15.462Z,11.30
2023-03-13T01:08:42.308Z,11.30
2023-03-13T01:11:11.731Z,11.40
2023-03-13T01:13:38.734Z,11.40
2023-03-13T01:16:08.540Z,11.50
2023-03-13T01:18:36.617Z,11.50
2023-03-13T01:21:04.568Z,11.30
2023-03-13T01:23:31.344Z,11.50
2023-03-13T01:25:58.415Z,11.50
2023-03-13T01:28:26.558Z,11.50
2023-03-13T01:30:53.727Z,11.40
2023-03-13T01:33:20.478Z,11.40
2023-03-13T01:35:47.624Z,11.40
2023-03-13T01:38:14.587Z,11.50
2023-03-13T01:40:49.369Z,11.50
2023-03-13T01:43:29.635Z,11.50
2023-03-13T01:46:09.819Z,11.50
2023-03-13T01:48:53.485Z,11.60
2023-03-13T01:51:22.848Z,11.60
2023-03-13T01:53:55.714Z,11.50
2023-03-13T01:56:28.275Z,11.60
2023-03-13T01:58:56.527Z,11.60
2023-03-13T02:01:24.493Z,11.60
2023-03-13T02:03:51.579Z,11.50
2023-03-13T02:06:18.961Z,11.40
2023-03-13T02:08:59.586Z,11.50
2023-03-13T02:11:37.332Z,11.60
2023-03-13T02:14:05.007Z,11.60
2023-03-13T02:16:34.105Z,11.60
2023-03-13T02:19:06.334Z,11.60
2023-03-13T02:21:39.169Z,11.50
2023-03-13T02:24:37.175Z,11.40
2023-03-13T02:27:04.244Z,11.40
2023-03-13T02:29:31.226Z,11.40
2023-03-13T02:31:58.094Z,11.40
2023-03-13T02:34:30.318Z,11.50
2023-03-13T02:36:58.428Z,11.50
2023-03-13T02:39:26.365Z,11.40
2023-03-13T02:41:54.042Z,11.40
2023-03-13T02:44:20.785Z,11.40
2023-03-13T02:46:52.586Z,11.40
2023-03-13T02:49:37.291Z,11.40
2023-03-13T02:52:17.417Z,11.50
2023-03-13T02:54:47.136Z,11.50
2023-03-13T02:57:13.919Z,11.50
2023-03-13T02:59:40.829Z,11.50
2023-03-13T03:02:07.626Z,11.30
2023-03-13T03:04:34.325Z,11.20
2023-03-13T03:07:00.986Z,11.20
2023-03-13T03:09:27.715Z,11.30
2023-03-13T03:11:54.479Z,11.30
2023-03-13T03:14:21.257Z,11.20
2023-03-13T03:16:48.258Z,11.10
2023-03-13T03:19:15.011Z,11.20
2023-03-13T03:21:42.138Z,11.20
2023-03-13T03:24:09.033Z,11.20
2023-03-13T03:26:35.718Z,11.20
2023-03-13T03:29:02.470Z,11.20
2023-03-13T03:31:30.764Z,11.50
2023-03-13T03:33:57.929Z,11.20
2023-03-13T03:36:24.922Z,11.30
2023-03-13T03:38:51.862Z,11.40
2023-03-13T03:41:19.561Z,11.30
2023-03-13T03:43:47.486Z,11.40
2023-03-13T03:46:15.389Z,11.50
2023-03-13T03:48:42.471Z,11.50
2023-03-13T03:51:09.213Z,11.40
2023-03-13T03:53:36.030Z,11.50
2023-03-13T03:56:02.860Z,11.40
2023-03-13T03:58:29.507Z,11.30
2023-03-13T04:00:58.449Z,11.40
2023-03-13T04:03:25.559Z,11.30
2023-03-13T04:05:52.333Z,11.30
2023-03-13T04:08:19.697Z,11.30
2023-03-13T04:10:46.560Z,11.40
2023-03-13T04:13:13.343Z,11.40
2023-03-13T04:15:41.194Z,11.40
2023-03-13T04:18:07.965Z,11.30
2023-03-13T04:20:35.133Z,11.30
2023-03-13T04:23:01.848Z,11.20
2023-03-13T04:25:28.632Z,11.20
2023-03-13T04:27:55.351Z,11.30
2023-03-13T04:30:22.187Z,11.30
2023-03-13T04:32:51.038Z,11.30
2023-03-13T04:35:17.937Z,11.20
2023-03-13T04:37:44.706Z,11.20
2023-03-13T04:40:13.337Z,11.20
2023-03-13T04:42:41.441Z,11.40
2023-03-13T04:45:11.420Z,11.40
2023-03-13T04:47:38.163Z,11.40
2023-03-13T04:50:05.307Z,11.40
2023-03-13T04:52:32.056Z,11.30
2023-03-13T04:54:58.782Z,11.30
2023-03-13T04:57:25.550Z,11.40
2023-03-13T04:59:52.262Z,11.30
2023-03-13T05:02:18.968Z,11.30
2023-03-13T05:04:45.722Z,11.20
2023-03-13T05:07:12.489Z,11.10
2023-03-13T05:09:39.266Z,11.00
2023-03-13T05:12:06.320Z,11.00
2023-03-13T05:14:33.023Z,11.10
2023-03-13T05:16:59.690Z,11.10
2023-03-13T05:19:26.426Z,11.10
2023-03-13T05:21:53.182Z,11.10
2023-03-13T05:24:19.986Z,11.20
2023-03-13T05:26:46.676Z,11.20
2023-03-13T05:29:13.455Z,11.30
2023-03-13T05:31:40.117Z,11.30
2023-03-13T05:34:06.812Z,11.30
2023-03-13T05:36:33.719Z,11.30
2023-03-13T05:39:00.516Z,11.20
2023-03-13T05:41:27.270Z,11.30
2023-03-13T05:43:54.056Z,11.30
2023-03-13T05:46:20.829Z,11.30
2023-03-13T05:48:47.597Z,11.30
2023-03-13T05:51:14.366Z,11.30
2023-03-13T05:53:41.076Z,11.20
2023-03-13T05:56:07.785Z,11.20
2023-03-13T05:58:34.526Z,11.20
2023-03-13T06:01:09.964Z,11.20
2023-03-13T06:03:37.027Z,11.20
2023-03-13T06:06:04.016Z,11.30
2023-03-13T06:08:30.776Z,11.30
2023-03-13T06:11:00.827Z,11.40
2023-03-13T06:13:28.142Z,11.40
2023-03-13T06:15:56.590Z,11.40
2023-03-13T06:18:24.550Z,11.40
2023-03-13T06:21:00.014Z,11.40
2023-03-13T06:23:26.830Z,11.40
2023-03-13T06:25:53.917Z,11.30
2023-03-13T06:28:20.997Z,11.30
2023-03-13T06:30:47.775Z,11.30
2023-03-13T06:33:14.639Z,11.40
2023-03-13T06:35:55.307Z,11.40
2023-03-13T06:38:24.774Z,11.30
2023-03-13T06:40:51.914Z,11.40
2023-03-13T06:43:19.556Z,11.50
2023-03-13T06:45:46.537Z,11.60
2023-03-13T06:48:13.373Z,11.70
2023-03-13T06:50:40.822Z,11.70
2023-03-13T06:53:07.732Z,11.80
2023-03-13T06:55:34.567Z,11.90
2023-03-13T06:58:01.305Z,12.00
2023-03-13T07:00:28.345Z,12.10
2023-03-13T07:02:55.433Z,12.20
2023-03-13T07:05:22.189Z,12.20
2023-03-13T07:07:49.007Z,12.30
2023-03-13T07:10:15.872Z,12.40
2023-03-13T07:12:42.640Z,12.40
2023-03-13T07:15:09.984Z,12.30
2023-03-13T07:17:37.523Z,12.40
2023-03-13T07:20:06.627Z,12.40
2023-03-13T07:22:33.381Z,12.40
2023-03-13T07:25:00.169Z,12.40
2023-03-13T07:27:27.071Z,12.40
2023-03-13T07:29:53.806Z,12.40
2023-03-13T07:32:20.586Z,12.30
2023-03-13T07:34:47.360Z,12.40
2023-03-13T07:37:15.793Z,12.40
2023-03-13T07:39:43.549Z,12.30
2023-03-13T07:42:11.709Z,12.40
2023-03-13T07:44:38.832Z,12.40
2023-03-13T07:47:05.795Z,12.50
2023-03-13T07:49:32.826Z,12.80
2023-03-13T07:51:59.546Z,12.90
2023-03-13T07:54:26.520Z,13.10
2023-03-13T07:56:53.210Z,13.20
2023-03-13T07:59:19.968Z,13.30
2023-03-13T08:01:46.719Z,13.30
2023-03-13T08:04:14.548Z,13.40
2023-03-13T08:06:42.062Z,13.50
2023-03-13T08:09:09.890Z,13.60
2023-03-13T08:11:40.396Z,13.60
2023-03-13T08:14:07.675Z,13.60
2023-03-13T08:16:35.365Z,13.60
2023-03-13T08:19:05.854Z,13.60
2023-03-13T08:21:35.324Z,13.60
2023-03-13T08:24:05.954Z,13.80
2023-03-13T08:26:34.745Z,13.90
2023-03-13T08:29:04.294Z,14.00
2023-03-13T08:31:42.059Z,14.10
2023-03-13T08:34:08.875Z,14.10
2023-03-13T08:36:37.050Z,14.20
2023-03-13T08:39:07.108Z,14.10
2023-03-13T08:41:36.268Z,14.20
2023-03-13T08:44:05.169Z,14.10
2023-03-13T08:46:34.745Z,13.90
2023-03-13T08:49:02.124Z,14.00
2023-03-13T08:51:29.355Z,14.00
2023-03-13T08:53:56.914Z,14.00
2023-03-13T08:56:26.550Z,14.00
2023-03-13T08:58:55.514Z,14.00
2023-03-13T09:01:24.566Z,14.10
2023-03-13T09:03:52.653Z,13.90
2023-03-13T09:06:19.848Z,13.90
2023-03-13T09:08:46.815Z,13.80
2023-03-13T09:11:17.111Z,13.70
2023-03-13T09:13:46.657Z,13.80
2023-03-13T09:16:19.521Z,13.80
2023-03-13T09:18:46.748Z,13.90
2023-03-13T09:21:16.744Z,14.00
2023-03-13T09:23:43.549Z,14.10
2023-03-13T09:26:14.605Z,14.10
2023-03-13T09:28:44.187Z,14.20
2023-03-13T09:31:12.738Z,14.20
2023-03-13T09:33:40.362Z,14.40
2023-03-13T09:36:08.102Z,14.30
2023-03-13T09:38:35.432Z,14.30
2023-03-13T09:41:16.730Z,14.20
2023-03-13T09:43:58.470Z,14.20
2023-03-13T09:46:34.086Z,14.40
2023-03-13T09:49:05.305Z,14.40
2023-03-13T09:51:42.814Z,14.60
2023-03-13T09:54:30.994Z,14.50
2023-03-13T09:57:06.186Z,14.50
2023-03-13T09:59:48.241Z,14.60
2023-03-13T10:02:29.793Z,14.60
2023-03-13T10:05:01.255Z,14.70
2023-03-13T10:07:28.049Z,14.70
2023-03-13T10:09:54.762Z,14.70
2023-03-13T10:12:28.061Z,14.70
2023-03-13T10:15:29.393Z,14.80
2023-03-13T10:17:57.422Z,14.90
2023-03-13T10:20:27.559Z,14.90
2023-03-13T10:23:08.140Z,14.90
2023-03-13T10:25:38.471Z,14.70
2023-03-13T10:28:06.728Z,14.70
2023-03-13T10:30:35.508Z,14.60
2023-03-13T10:33:26.683Z,14.50
2023-03-13T10:36:12.290Z,14.50
2023-03-13T10:38:52.401Z,14.40
2023-03-13T10:41:29.197Z,14.50
2023-03-13T10:44:01.396Z,14.40
2023-03-13T10:46:34.272Z,14.40
2023-03-13T10:49:04.569Z,14.50
2023-03-13T10:51:39.654Z,14.60
2023-03-13T10:54:25.772Z,14.80
2023-03-13T10:57:07.868Z,14.90
2023-03-13T10:59:42.379Z,15.10
2023-03-13T11:02:32.951Z,15.20
2023-03-13T11:05:19.715Z,15.00
2023-03-13T11:07:46.673Z,14.70
2023-03-13T11:10:26.166Z,14.90
2023-03-13T11:12:55.832Z,14.80
2023-03-13T11:15:30.700Z,14.70
2023-03-13T11:18:06.277Z,14.90
2023-03-13T11:20:37.686Z,15.10
2023-03-13T11:23:22.970Z,15.20
2023-03-13T11:26:13.583Z,15.20
2023-03-13T11:28:50.538Z,15.30
2023-03-13T11:31:54.960Z,15.70
2023-03-13T11:34:27.960Z,16.50
2023-03-13T11:37:12.031Z,16.80
2023-03-13T11:39:51.250Z,17.00
2023-03-13T11:42:39.151Z,17.00
2023-03-13T11:45:44.528Z,17.00
2023-03-13T11:48:39.062Z,17.30
2023-03-13T11:51:38.491Z,17.80
2023-03-13T11:54:26.318Z,18.40
2023-03-13T11:56:57.084Z,19.10
2023-03-13T11:59:32.976Z,19.70
2023-03-13T12:02:09.045Z,19.90
2023-03-13T12:04:42.669Z,19.90
2023-03-13T12:07:25.315Z,21.50
2023-03-13T12:10:18.151Z,22.60
2023-03-13T12:12:51.420Z,23.80
2023-03-13T12:15:26.392Z,24.20
2023-03-13T12:18:06.026Z,23.60
2023-03-13T12:20:44.906Z,22.60
2023-03-13T12:23:19.359Z,22.10
2023-03-13T12:26:02.984Z,22.00
2023-03-13T12:28:43.967Z,22.60
2023-03-13T12:31:31.712Z,24.30
2023-03-13T12:34:10.799Z,26.20
2023-03-13T12:37:06.727Z,27.00
2023-03-13T12:39:50.014Z,28.80
2023-03-13T12:42:19.813Z,28.00
2023-03-13T12:44:46.996Z,27.30
2023-03-13T12:47:25.855Z,27.00
2023-03-13T12:50:21.478Z,28.20
2023-03-13T12:52:57.238Z,29.60
2023-03-13T12:55:52.885Z,29.70
2023-03-13T12:58:50.057Z,27.60
2023-03-13T13:01:48.621Z,26.50
2023-03-13T13:04:24.923Z,26.30
2023-03-13T13:06:51.690Z,25.70
2023-03-13T13:09:27.319Z,26.20
2023-03-13T13:12:20.012Z,27.10
2023-03-13T13:14:49.547Z,25.60
2023-03-13T13:17:16.688Z,23.80
2023-03-13T13:19:44.862Z,22.80
2023-03-13T13:22:36.777Z,22.50
2023-03-13T13:25:33.027Z,22.20
2023-03-13T13:28:22.101Z,21.70
2023-03-13T13:30:50.403Z,21.00
2023-03-13T13:33:30.575Z,20.40
2023-03-13T13:36:09.575Z,19.70
2023-03-13T13:38:41.935Z,19.50
2023-03-13T13:41:11.442Z,19.40
2023-03-13T13:43:47.284Z,19.10
2023-03-13T13:46:23.004Z,19.10
2023-03-13T13:49:14.641Z,19.00
2023-03-13T13:51:42.536Z,18.80
2023-03-13T13:54:18.310Z,18.90
2023-03-13T13:56:51.754Z,18.80
2023-03-13T13:59:21.533Z,18.80
2023-03-13T14:01:50.253Z,18.60
2023-03-13T14:04:34.858Z,18.40
2023-03-13T14:07:04.481Z,18.10
2023-03-13T14:09:39.717Z,17.80
2023-03-13T14:12:33.221Z,17.50
2023-03-13T14:15:22.278Z,17.50
2023-03-13T14:18:19.667Z,17.50
2023-03-13T14:21:20.987Z,17.40
2023-03-13T14:23:47.958Z,17.50
2023-03-13T14:26:24.854Z,17.50
2023-03-13T14:29:02.976Z,17.50
2023-03-13T14:31:36.147Z,17.50
2023-03-13T14:34:05.393Z,17.30
2023-03-13T14:37:17.673Z,17.20
2023-03-13T14:39:46.073Z,17.30
2023-03-13T14:42:14.669Z,17.40
2023-03-13T14:44:44.070Z,17.40
2023-03-13T14:47:33.110Z,17.30
2023-03-13T14:50:12.502Z,17.10
2023-03-13T14:52:46.280Z,17.20
2023-03-13T14:55:21.974Z,17.00
2023-03-13T14:58:24.454Z,16.80
2023-03-13T15:00:51.377Z,16.50
2023-03-13T15:03:20.005Z,16.30
2023-03-13T15:06:08.605Z,16.20
2023-03-13T15:08:37.730Z,16.10
2023-03-13T15:11:32.243Z,16.10
2023-03-13T15:13:59.026Z,16.40
2023-03-13T15:16:27.915Z,16.40
2023-03-13T15:18:57.045Z,16.20
2023-03-13T15:21:27.151Z,16.10
2023-03-13T15:24:01.963Z,16.20
2023-03-13T15:26:29.361Z,16.20
2023-03-13T15:28:56.136Z,16.20
2023-03-13T15:31:27.858Z,16.10
2023-03-13T15:33:58.276Z,16.30
2023-03-13T15:36:26.854Z,16.30
2023-03-13T15:38:54.282Z,16.30
2023-03-13T15:41:22.233Z,16.30
2023-03-13T15:43:52.707Z,16.20
2023-03-13T15:46:20.705Z,16.30
2023-03-13T15:48:48.103Z,16.30
2023-03-13T15:51:16.022Z,16.20
2023-03-13T15:53:43.582Z,16.20
2023-03-13T15:56:18.774Z,16.20
2023-03-13T15:58:47.492Z,16.10
2023-03-13T16:01:16.648Z,16.00
2023-03-13T16:03:43.386Z,16.00
2023-03-13T16:06:17.530Z,16.20
2023-03-13T16:08:45.091Z,16.10
2023-03-13T16:11:16.931Z,16.30
2023-03-13T16:13:44.376Z,16.40
2023-03-13T16:16:25.473Z,16.30
2023-03-13T16:18:53.027Z,16.10
2023-03-13T16:21:32.029Z,16.00
2023-03-13T16:23:59.086Z,16.10
2023-03-13T16:26:29.273Z,16.20
2023-03-13T16:28:56.085Z,16.20
2023-03-13T16:31:28.611Z,16.20
2023-03-13T16:33:55.995Z,16.20
2023-03-13T16:36:25.297Z,16.30
2023-03-13T16:38:52.493Z,16.20
2023-03-13T16:41:22.050Z,16.00
2023-03-13T16:43:49.082Z,15.80
2023-03-13T16:46:20.541Z,15.70
2023-03-13T16:48:48.433Z,15.60
2023-03-13T16:51:21.386Z,15.70
2023-03-13T16:53:50.244Z,15.90
2023-03-13T16:56:37.969Z,16.00
2023-03-13T16:59:16.595Z,16.10
2023-03-13T17:01:44.233Z,15.90
2023-03-13T17:04:12.260Z,15.80
2023-03-13T17:06:42.095Z,15.90
2023-03-13T17:09:17.090Z,16.00
2023-03-13T17:11:44.135Z,16.10
2023-03-13T17:14:10.991Z,16.20
2023-03-13T17:16:41.624Z,16.00
2023-03-13T17:19:13.649Z,16.00
2023-03-13T17:21:40.364Z,16.00
2023-03-13T17:24:07.803Z,15.90
2023-03-13T17:26:39.401Z,15.80
2023-03-13T17:29:07.271Z,15.70
2023-03-13T17:31:38.521Z,15.70
2023-03-13T17:34:06.433Z,15.60
2023-03-13T17:36:33.870Z,15.70
2023-03-13T17:39:02.974Z,15.60
2023-03-13T17:41:32.400Z,15.70
2023-03-13T17:43:59.653Z,15.80
2023-03-13T17:46:34.112Z,15.80
2023-03-13T17:49:01.531Z,15.90
2023-03-13T17:51:30.594Z,15.90
2023-03-13T17:53:58.318Z,15.90
2023-03-13T17:56:31.512Z,15.90
2023-03-13T17:59:00.184Z,15.90
2023-03-13T18:01:29.974Z,15.90
2023-03-13T18:03:57.242Z,15.90
2023-03-13T18:06:28.513Z,15.80
2023-03-13T18:08:58.093Z,15.80
2023-03-13T18:11:26.727Z,15.80
2023-03-13T18:13:53.946Z,15.90
2023-03-13T18:16:37.934Z,15.90
2023-03-13T18:19:23.056Z,15.80
2023-03-13T18:21:53.136Z,15.80
2023-03-13T18:24:20.280Z,15.90
2023-03-13T18:26:49.075Z,15.80
2023-03-13T18:29:26.461Z,15.80
2023-03-13T18:31:55.406Z,15.70
2023-03-13T18:34:23.357Z,15.80
2023-03-13T18:36:50.661Z,15.80
2023-03-13T18:39:17.990Z,15.70
2023-03-13T18:41:45.688Z,15.70
2023-03-13T18:44:15.561Z,15.80
2023-03-13T18:46:43.458Z,15.70
2023-03-13T18:49:13.267Z,15.80
2023-03-13T18:51:40.107Z,15.70
2023-03-13T18:54:06.841Z,15.70
2023-03-13T18:56:34.324Z,15.70
2023-03-13T18:59:01.244Z,15.60
2023-03-13T19:01:32.305Z,15.60
2023-03-13T19:04:00.233Z,15.60
2023-03-13T19:06:30.349Z,15.70
2023-03-13T19:09:00.307Z,15.70
2023-03-13T19:11:32.393Z,15.70
2023-03-13T19:13:59.788Z,15.70
2023-03-13T19:16:38.006Z,15.70
2023-03-13T19:19:11.227Z,15.70
2023-03-13T19:21:37.941Z,15.70
2023-03-13T19:24:05.011Z,15.70
2023-03-13T19:26:38.225Z,15.70
2023-03-13T19:29:12.428Z,15.60
2023-03-13T19:31:39.135Z,15.60
2023-03-13T19:34:05.961Z,15.50
2023-03-13T19:36:39.291Z,15.60
2023-03-13T19:39:25.421Z,15.50
2023-03-13T19:41:53.126Z,15.50
2023-03-13T19:44:21.301Z,15.50
2023-03-13T19:46:48.749Z,15.30
2023-03-13T19:49:18.416Z,15.20
2023-03-13T19:51:45.823Z,15.20
2023-03-13T19:54:13.414Z,15.30
2023-03-13T19:56:45.443Z,15.20
2023-03-13T19:59:16.621Z,15.20
2023-03-13T20:01:43.961Z,15.10
2023-03-13T20:04:12.998Z,15.20
2023-03-13T20:06:41.020Z,15.20
2023-03-13T20:09:14.808Z,15.30
2023-03-13T20:11:41.845Z,15.30
2023-03-13T20:14:09.262Z,15.30
2023-03-13T20:16:36.673Z,15.20
2023-03-13T20:19:03.564Z,15.20
2023-03-13T20:21:32.362Z,15.10
2023-03-13T20:23:59.515Z,15.00
2023-03-13T20:26:27.803Z,15.00
2023-03-13T20:28:56.398Z,15.00
2023-03-13T20:31:26.476Z,14.90
2023-03-13T20:33:54.371Z,14.90
2023-03-13T20:36:21.983Z,14.80
2023-03-13T20:38:49.001Z,14.70
2023-03-13T20:41:24.528Z,14.70
2023-03-13T20:43:52.340Z,14.60
2023-03-13T20:46:20.240Z,14.50
2023-03-13T20:48:47.151Z,14.40
2023-03-13T20:51:14.270Z,14.20
2023-03-13T20:53:42.238Z,14.10
2023-03-13T20:56:10.521Z,14.00
2023-03-13T20:58:37.954Z,13.80
2023-03-13T21:01:06.379Z,13.80
2023-03-13T21:03:35.927Z,13.70
2023-03-13T21:06:14.224Z,13.60
2023-03-13T21:08:41.664Z,13.50
2023-03-13T21:11:19.725Z,13.40
2023-03-13T21:13:46.790Z,13.20
2023-03-13T21:16:14.572Z,13.10
2023-03-13T21:18:42.034Z,13.00
2023-03-13T21:21:12.561Z,13.00
2023-03-13T21:23:39.293Z,12.90
2023-03-13T21:26:06.177Z,12.90
2023-03-13T21:28:33.041Z,12.90
2023-03-13T21:31:06.756Z,12.70
2023-03-13T21:33:33.553Z,12.90
2023-03-13T21:36:00.414Z,12.90
2023-03-13T21:38:27.129Z,12.90
2023-03-13T21:40:53.823Z,12.80
2023-03-13T21:43:20.591Z,12.70
2023-03-13T21:45:47.273Z,12.80
2023-03-13T21:48:14.049Z,13.00
2023-03-13T21:50:40.742Z,12.80
2023-03-13T21:53:07.543Z,12.80
2023-03-13T21:55:35.401Z,12.80
2023-03-13T21:58:02.102Z,12.80
2023-03-13T22:00:28.795Z,12.70
2023-03-13T22:02:55.608Z,12.60
2023-03-13T22:05:22.405Z,12.60
2023-03-13T22:07:49.132Z,12.60
2023-03-13T22:10:16.251Z,12.70
2023-03-13T22:12:43.076Z,12.80
2023-03-13T22:15:10.521Z,12.80
2023-03-13T22:17:37.243Z,12.80
2023-03-13T22:20:05.094Z,12.80
2023-03-13T22:22:31.835Z,12.70
2023-03-13T22:24:58.561Z,12.70
2023-03-13T22:27:25.417Z,12.70
2023-03-13T22:29:52.249Z,12.70
2023-03-13T22:32:19.085Z,12.70
2023-03-13T22:34:47.913Z,12.70
2023-03-13T22:37:14.816Z,12.70
2023-03-13T22:39:41.597Z,12.80
2023-03-13T22:42:08.308Z,12.70
2023-03-13T22:44:35.009Z,12.70
2023-03-13T22:47:01.700Z,12.70
2023-03-13T22:49:28.413Z,12.70
2023-03-13T22:51:55.190Z,12.60
2023-03-13T22:54:22.050Z,12.60
2023-03-13T22:56:48.714Z,12.60
2023-03-13T22:59:15.417Z,12.60
2023-03-13T23:01:42.201Z,12.60
2023-03-13T23:04:08.893Z,12.70
2023-03-13T23:06:35.569Z,12.70
2023-03-13T23:09:02.387Z,12.60
2023-03-13T23:11:29.231Z,12.60
2023-03-13T23:13:55.919Z,12.70
2023-03-13T23:16:22.700Z,12.60
2023-03-13T23:18:49.561Z,12.60
2023-03-13T23:21:16.708Z,12.70
2023-03-13T23:23:44.245Z,12.60
2023-03-13T23:26:14.159Z,12.50
2023-03-13T23:28:41.492Z,12.50
2023-03-13T23:31:13.006Z,12.60
2023-03-13T23:33:39.895Z,12.50
2023-03-13T23:36:08.451Z,12.60
2023-03-13T23:38:35.424Z,12.50
2023-03-13T23:41:07.271Z,12.50
2023-03-13T23:43:34.843Z,12.60
2023-03-13T23:46:02.226Z,12.50
2023-03-13T23:48:28.993Z,12.40
2023-03-13T23:50:55.853Z,12.40
2023-03-13T23:53:22.737Z,12.40
2023-03-13T23:55:58.135Z,12.40
2023-03-13T23:58:25.253Z,12.40
